createdAt,value
2023-04-30T18:00:04.667Z,99303.13
2023-04-30T18:02:31.909Z,99302.21
2023-04-30T18:04:58.370Z,99311.08
2023-04-30T18:07:25.252Z,99310.52
2023-04-30T18:09:52.011Z,99310.23
2023-04-30T18:12:18.396Z,99313.95
2023-04-30T18:14:48.170Z,99312.52
2023-04-30T18:17:15.912Z,99316.22
2023-04-30T18:19:47.944Z,99317.97
2023-04-30T18:22:14.597Z,99320.32
2023-04-30T18:24:43.503Z,99329.36
2023-04-30T18:27:09.969Z,99335.10
2023-04-30T18:29:37.044Z,99338.55
2023-04-30T18:32:04.329Z,99341.09
2023-04-30T18:34:31.591Z,99344.41
2023-04-30T18:36:57.978Z,99350.13
2023-04-30T18:39:24.398Z,99353.89
2023-04-30T18:41:53.660Z,99359.32
2023-04-30T18:44:30.902Z,99363.88
2023-04-30T18:46:58.286Z,99368.64
2023-04-30T18:49:24.662Z,99373.81
2023-04-30T18:51:51.306Z,99374.75
2023-04-30T18:54:17.821Z,99375.85
2023-04-30T18:56:49.613Z,99377.85
2023-04-30T18:59:16.467Z,99379.77
2023-04-30T19:01:43.260Z,99386.93
2023-04-30T19:04:13.035Z,99387.66
2023-04-30T19:06:39.456Z,99390.70
2023-04-30T19:09:05.945Z,99400.77
2023-04-30T19:11:35.095Z,99396.79
2023-04-30T19:14:02.320Z,99401.05
2023-04-30T19:16:29.868Z,99401.05
2023-04-30T19:18:57.166Z,99401.33
2023-04-30T19:21:23.727Z,99396.62
2023-04-30T19:23:52.618Z,99398.86
2023-04-30T19:26:21.188Z,99399.39
2023-04-30T19:28:50.435Z,99404.38
2023-04-30T19:31:17.438Z,99406.27
2023-04-30T19:33:44.742Z,99406.52
2023-04-30T19:36:11.353Z,99412.99
2023-04-30T19:38:37.908Z,99408.98
2023-04-30T19:41:04.422Z,99413.80
2023-04-30T19:43:31.032Z,99417.88
2023-04-30T19:45:58.809Z,99417.20
2023-04-30T19:48:42.361Z,99420.27
2023-04-30T19:51:14.877Z,99425.23
2023-04-30T19:53:46.037Z,99423.75
2023-04-30T19:56:20.264Z,99422.70
2023-04-30T19:58:47.933Z,99431.27
2023-04-30T20:01:14.491Z,99431.61
2023-04-30T20:03:42.341Z,99435.03
2023-04-30T20:06:09.363Z,99438.16
2023-04-30T20:08:38.655Z,99441.26
2023-04-30T20:11:05.798Z,99444.14
2023-04-30T20:13:32.285Z,99444.41
2023-04-30T20:15:58.815Z,99446.52
2023-04-30T20:18:26.689Z,99445.83
2023-04-30T20:20:54.663Z,99449.30
2023-04-30T20:23:21.792Z,99448.72
2023-04-30T20:25:49.421Z,99452.42
2023-04-30T20:28:17.729Z,99455.14
2023-04-30T20:30:44.285Z,99457.91
2023-04-30T20:33:19.910Z,99457.66
2023-04-30T20:35:46.968Z,99456.37
2023-04-30T20:38:15.185Z,99460.29
2023-04-30T20:40:42.560Z,99461.55
2023-04-30T20:43:12.247Z,99462.42
2023-04-30T20:45:40.193Z,99467.29
2023-04-30T20:48:09.292Z,99470.11
2023-04-30T20:50:36.733Z,99473.28
2023-04-30T20:53:03.839Z,99467.91
2023-04-30T20:55:44.815Z,99467.08
2023-04-30T20:58:11.732Z,99469.10
2023-04-30T21:00:41.912Z,99473.14
2023-04-30T21:03:11.007Z,99473.58
2023-04-30T21:05:40.285Z,99478.27
2023-04-30T21:08:06.727Z,99481.63
2023-04-30T21:10:35.359Z,99480.52
2023-04-30T21:13:04.485Z,99484.66
2023-04-30T21:15:33.788Z,99485.39
2023-04-30T21:18:05.368Z,99483.85
2023-04-30T21:20:32.571Z,99486.63
2023-04-30T21:23:04.989Z,99486.48
2023-04-30T21:25:31.732Z,99487.59
2023-04-30T21:27:58.736Z,99490.23
2023-04-30T21:30:28.215Z,99492.71
2023-04-30T21:32:59.469Z,99495.96
2023-04-30T21:35:32.208Z,99496.55
2023-04-30T21:38:04.933Z,99495.58
2023-04-30T21:40:33.068Z,99496.95
2023-04-30T21:43:00.660Z,99498.88
2023-04-30T21:45:27.066Z,99498.36
2023-04-30T21:47:56.538Z,99497.54
2023-04-30T21:50:23.632Z,99500.61
2023-04-30T21:52:50.923Z,99502.25
2023-04-30T21:55:20.406Z,99505.31
2023-04-30T21:57:46.947Z,99505.59
2023-04-30T22:00:16.704Z,99505.11
2023-04-30T22:02:43.215Z,99511.72
2023-04-30T22:05:15.337Z,99514.04
2023-04-30T22:07:41.828Z,99514.30
2023-04-30T22:10:09.698Z,99518.46
2023-04-30T22:12:40.854Z,99521.83
2023-04-30T22:15:08.603Z,99522.14
2023-04-30T22:17:36.236Z,99521.02
2023-04-30T22:20:04.152Z,99520.17
2023-04-30T22:22:31.026Z,99518.59
2023-04-30T22:24:57.382Z,99523.70
2023-04-30T22:27:23.821Z,99521.42
2023-04-30T22:29:50.275Z,99517.27
2023-04-30T22:32:19.322Z,99520.27
2023-04-30T22:34:46.237Z,99520.56
2023-04-30T22:37:14.145Z,99517.31
2023-04-30T22:39:44.375Z,99522.38
2023-04-30T22:42:10.855Z,99527.03
2023-04-30T22:44:37.296Z,99527.46
2023-04-30T22:47:05.313Z,99528.33
2023-04-30T22:49:33.646Z,99532.33
2023-04-30T22:52:00.885Z,99528.58
2023-04-30T22:54:30.957Z,99528.83
2023-04-30T22:56:57.855Z,99531.01
2023-04-30T22:59:24.367Z,99531.52
2023-04-30T23:01:51.559Z,99530.05
2023-04-30T23:04:19.562Z,99532.44
2023-04-30T23:06:46.047Z,99534.10
2023-04-30T23:09:14.933Z,99532.23
2023-04-30T23:11:44.375Z,99533.11
2023-04-30T23:14:11.580Z,99537.08
2023-04-30T23:16:41.935Z,99539.46
2023-04-30T23:19:09.278Z,99540.61
2023-04-30T23:21:35.740Z,99541.27
2023-04-30T23:24:05.032Z,99542.22
2023-04-30T23:26:34.756Z,99541.94
2023-04-30T23:29:02.279Z,99543.58
2023-04-30T23:31:31.516Z,99544.85
2023-04-30T23:34:02.380Z,99551.04
2023-04-30T23:36:30.616Z,99550.23
2023-04-30T23:38:57.514Z,99556.45
2023-04-30T23:41:25.436Z,99552.59
2023-04-30T23:43:51.872Z,99556.63
2023-04-30T23:46:18.775Z,99555.45
2023-04-30T23:48:51.360Z,99556.73
2023-04-30T23:51:21.897Z,99557.80
2023-04-30T23:53:59.532Z,99555.87
2023-04-30T23:56:26.424Z,99559.34
2023-04-30T23:58:52.950Z,99559.73
